Terminal Aerodrome Forecast
Issued by NWS

Home | Current Version | Previous Version | Text Only | Print | Product List | Glossary On
Versions: 1 2 3 4 5 6 7 8 9 10 11 12 13 14 15 16 17 18 19 20
935
FTUS43 KDLH 202336
TAFHIB
TAF
KHIB 202336Z 2100/2124 23008KT P6SM SCT120 WS020/26040KT
     FM210100 26010G18KT P6SM BKN070 WS020/28045KT
     FM210400 28012G22KT P6SM VCSH SCT015 BKN025
     FM210900 31017G28KT 4SM -SHSN SCT015 BKN025
     FM211300 32016G27KT P6SM VCSH BKN025
     FM211500 32015G25KT P6SM BKN025
     FM212100 31012KT P6SM SCT035=

USA.gov is the U.S. government's official web portal to all federal, state and local government web resources and services.